Mill City, Oregon
Current Conditions -  °F | °C
As of 8:56 AM on Wednesday 26 Nov 2014 (Local Time) from KSLE Reporting Station
Clear Clear  
Wind Chill: 53°   Ceiling: Unl
Heat Index: 53°   Visibility: 10mi
Dew Point: 50°   Wind: 7mph
Humidity: 89%   Direction: 120°ESE
Pressure: 30.16"   Gusts: NA
Location:  44.75°N, 122.48°W
Report Text: KSLE 261656Z 12006KT 10SM CLR 12/10 A3016 RMK AO2 SLP214 T01170100
Loading
Personal Weather Stations






























Interactive Weather Map New forecast layout! Learn more

10-Day Weather Forecast

Advertisements
Track Severe Weather on mobile